sensor_id;sensor_type;location;lat;lon;timestamp;pressure;altitude;pressure_sealevel;temperature;humidity
10638;BME280;47007;49.252;8.904;2022-10-31T00:01:27;100353.28;;;10.52;100.00
10638;BME280;47007;49.252;8.904;2022-10-31T00:03:54;100352.66;;;10.50;100.00
10638;BME280;47007;49.252;8.904;2022-10-31T00:06:22;100336.75;;;10.41;100.00
10638;BME280;47007;49.252;8.904;2022-10-31T00:08:54;100357.28;;;10.48;100.00
10638;BME280;47007;49.252;8.904;2022-10-31T00:11:21;100345.34;;;10.43;100.00
10638;BME280;47007;49.252;8.904;2022-10-31T00:13:48;100323.19;;;10.28;100.00
10638;BME280;47007;49.252;8.904;2022-10-31T00:16:17;100317.25;;;10.10;100.00
10638;BME280;47007;49.252;8.904;2022-10-31T00:18:47;100338.44;;;10.10;100.00
10638;BME280;47007;49.252;8.904;2022-10-31T00:21:14;100344.56;;;10.11;100.00
10638;BME280;47007;49.252;8.904;2022-10-31T00:23:41;100347.34;;;10.17;100.00
10638;BME280;47007;49.252;8.904;2022-10-31T00:26:08;100351.88;;;10.25;100.00
10638;BME280;47007;49.252;8.904;2022-10-31T00:28:34;100342.75;;;10.19;100.00
10638;BME280;47007;49.252;8.904;2022-10-31T00:31:07;100345.38;;;10.27;100.00
10638;BME280;47007;49.252;8.904;2022-10-31T00:33:35;100350.34;;;10.30;100.00
10638;BME280;47007;49.252;8.904;2022-10-31T00:36:04;100347.38;;;10.33;100.00
10638;BME280;47007;49.252;8.904;2022-10-31T00:38:32;100345.72;;;10.32;100.00
10638;BME280;47007;49.252;8.904;2022-10-31T00:40:59;100308.97;;;10.13;100.00
10638;BME280;47007;49.252;8.904;2022-10-31T00:43:26;100344.72;;;10.33;100.00
10638;BME280;47007;49.252;8.904;2022-10-31T00:45:52;100330.66;;;10.25;100.00
10638;BME280;47007;49.252;8.904;2022-10-31T00:48:19;100308.63;;;10.08;100.00
10638;BME280;47007;49.252;8.904;2022-10-31T00:50:47;100341.41;;;10.31;100.00
10638;BME280;47007;49.252;8.904;2022-10-31T00:53:14;100341.06;;;10.34;100.00
10638;BME280;47007;49.252;8.904;2022-10-31T00:55:41;100310.44;;;10.16;100.00
10638;BME280;47007;49.252;8.904;2022-10-31T00:58:08;100342.06;;;10.33;100.00
10638;BME280;47007;49.252;8.904;2022-10-31T01:00:34;100308.31;;;10.03;100.00
10638;BME280;47007;49.252;8.904;2022-10-31T01:03:01;100317.75;;;9.97;100.00
10638;BME280;47007;49.252;8.904;2022-10-31T01:05:28;100342.06;;;10.09;100.00
10638;BME280;47007;49.252;8.904;2022-10-31T01:07:55;100329.50;;;9.95;100.00
10638;BME280;47007;49.252;8.904;2022-10-31T01:10:22;100330.34;;;9.95;100.00
10638;BME280;47007;49.252;8.904;2022-10-31T01:12:50;100337.44;;;10.03;100.00
10638;BME280;47007;49.252;8.904;2022-10-31T01:15:22;100343.06;;;10.08;100.00
10638;BME280;47007;49.252;8.904;2022-10-31T01:17:49;100348.69;;;10.05;100.00
10638;BME280;47007;49.252;8.904;2022-10-31T01:20:16;100342.56;;;10.04;100.00
10638;BME280;47007;49.252;8.904;2022-10-31T01:22:43;100346.72;;;9.99;100.00
10638;BME280;47007;49.252;8.904;2022-10-31T01:25:09;100313.78;;;9.77;100.00
10638;BME280;47007;49.252;8.904;2022-10-31T01:27:37;100346.38;;;10.02;100.00
10638;BME280;47007;49.252;8.904;2022-10-31T01:30:06;100347.69;;;10.06;100.00
10638;BME280;47007;49.252;8.904;2022-10-31T01:32:33;100347.22;;;10.11;100.00
10638;BME280;47007;49.252;8.904;2022-10-31T01:35:00;100343.72;;;10.10;100.00
10638;BME280;47007;49.252;8.904;2022-10-31T01:37:27;100333.31;;;10.08;100.00
10638;BME280;47007;49.252;8.904;2022-10-31T01:39:54;100334.97;;;10.09;100.00
10638;BME280;47007;49.252;8.904;2022-10-31T01:42:22;100344.75;;;10.01;100.00
10638;BME280;47007;49.252;8.904;2022-10-31T01:45:09;100324.88;;;9.89;100.00
10638;BME280;47007;49.252;8.904;2022-10-31T01:47:44;100331.19;;;9.88;100.00
10638;BME280;47007;49.252;8.904;2022-10-31T01:50:34;100327.84;;;9.78;100.00
10638;BME280;47007;49.252;8.904;2022-10-31T01:53:02;100325.53;;;9.83;100.00
10638;BME280;47007;49.252;8.904;2022-10-31T01:55:38;100337.09;;;9.90;100.00
10638;BME280;47007;49.252;8.904;2022-10-31T01:58:13;100337.78;;;9.84;100.00
10638;BME280;47007;49.252;8.904;2022-10-31T02:00:44;100331.16;;;9.80;100.00
10638;BME280;47007;49.252;8.904;2022-10-31T02:03:12;100323.91;;;9.73;100.00
10638;BME280;47007;49.252;8.904;2022-10-31T02:05:41;100338.94;;;9.81;100.00
10638;BME280;47007;49.252;8.904;2022-10-31T02:10:36;100343.06;;;9.67;100.00
10638;BME280;47007;49.252;8.904;2022-10-31T02:13:05;100292.63;;;9.36;100.00
10638;BME280;47007;49.252;8.904;2022-10-31T02:15:40;100344.56;;;9.70;100.00
10638;BME280;47007;49.252;8.904;2022-10-31T02:18:07;100342.91;;;9.77;100.00
10638;BME280;47007;49.252;8.904;2022-10-31T02:20:58;100344.41;;;9.88;100.00
10638;BME280;47007;49.252;8.904;2022-10-31T02:26:43;100341.41;;;9.83;100.00
10638;BME280;47007;49.252;8.904;2022-10-31T02:34:33;100344.88;;;9.67;100.00
10638;BME280;47007;49.252;8.904;2022-10-31T02:40:02;100333.97;;;9.62;100.00
10638;BME280;47007;49.252;8.904;2022-10-31T02:43:05;100342.91;;;9.69;100.00
10638;BME280;47007;49.252;8.904;2022-10-31T02:45:45;100331.50;;;9.77;100.00
10638;BME280;47007;49.252;8.904;2022-10-31T02:48:19;100294.41;;;9.52;100.00
10638;BME280;47007;49.252;8.904;2022-10-31T02:50:53;100331.81;;;9.65;100.00
10638;BME280;47007;49.252;8.904;2022-10-31T02:53:21;100312.78;;;9.54;100.00
10638;BME280;47007;49.252;8.904;2022-10-31T02:55:53;100344.75;;;9.77;100.00
10638;BME280;47007;49.252;8.904;2022-10-31T02:58:24;100311.78;;;9.55;100.00
10638;BME280;47007;49.252;8.904;2022-10-31T03:07:30;100335.97;;;9.60;100.00
10638;BME280;47007;49.252;8.904;2022-10-31T03:13:05;100335.78;;;9.53;100.00
10638;BME280;47007;49.252;8.904;2022-10-31T03:15:37;100311.81;;;9.39;100.00
10638;BME280;47007;49.252;8.904;2022-10-31T03:18:13;100312.63;;;9.39;100.00
10638;BME280;47007;49.252;8.904;2022-10-31T03:23:27;100332.97;;;9.39;100.00
10638;BME280;47007;49.252;8.904;2022-10-31T03:25:55;100319.88;;;9.29;100.00
10638;BME280;47007;49.252;8.904;2022-10-31T03:28:30;100335.09;;;9.35;100.00
10638;BME280;47007;49.252;8.904;2022-10-31T03:31:04;100338.56;;;9.35;100.00
10638;BME280;47007;49.252;8.904;2022-10-31T03:33:37;100349.47;;;9.41;100.00
10638;BME280;47007;49.252;8.904;2022-10-31T03:36:05;100352.47;;;9.38;100.00
10638;BME280;47007;49.252;8.904;2022-10-31T03:38:35;100337.75;;;9.27;100.00
10638;BME280;47007;49.252;8.904;2022-10-31T03:41:05;100339.72;;;9.33;100.00
10638;BME280;47007;49.252;8.904;2022-10-31T03:43:41;100352.63;;;9.52;100.00
10638;BME280;47007;49.252;8.904;2022-10-31T03:46:09;100341.06;;;9.53;100.00
10638;BME280;47007;49.252;8.904;2022-10-31T03:48:36;100352.97;;;9.57;100.00
10638;BME280;47007;49.252;8.904;2022-10-31T03:54:03;100334.13;;;9.44;100.00
10638;BME280;47007;49.252;8.904;2022-10-31T03:56:33;100348.00;;;9.54;100.00
10638;BME280;47007;49.252;8.904;2022-10-31T03:59:09;100339.28;;;9.62;100.00
10638;BME280;47007;49.252;8.904;2022-10-31T04:01:42;100341.25;;;9.68;100.00
10638;BME280;47007;49.252;8.904;2022-10-31T04:04:10;100319.56;;;9.64;100.00
10638;BME280;47007;49.252;8.904;2022-10-31T04:06:38;100338.78;;;9.75;100.00
10638;BME280;47007;49.252;8.904;2022-10-31T04:09:09;100335.78;;;9.69;100.00
10638;BME280;47007;49.252;8.904;2022-10-31T04:11:53;100326.19;;;9.44;100.00
10638;BME280;47007;49.252;8.904;2022-10-31T04:14:39;100325.00;;;9.30;100.00
10638;BME280;47007;49.252;8.904;2022-10-31T04:17:12;100338.25;;;9.39;100.00
10638;BME280;47007;49.252;8.904;2022-10-31T04:19:41;100337.22;;;9.40;100.00
10638;BME280;47007;49.252;8.904;2022-10-31T04:22:08;100336.25;;;9.41;100.00
10638;BME280;47007;49.252;8.904;2022-10-31T04:24:37;100339.88;;;9.40;100.00
10638;BME280;47007;49.252;8.904;2022-10-31T04:27:06;100332.78;;;9.40;100.00
10638;BME280;47007;49.252;8.904;2022-10-31T04:29:33;100309.63;;;9.34;100.00
10638;BME280;47007;49.252;8.904;2022-10-31T04:31:59;100318.41;;;9.43;100.00
10638;BME280;47007;49.252;8.904;2022-10-31T04:34:26;100316.06;;;9.40;100.00
10638;BME280;47007;49.252;8.904;2022-10-31T04:36:53;100313.78;;;9.36;100.00
10638;BME280;47007;49.252;8.904;2022-10-31T04:39:20;100316.75;;;9.42;100.00
10638;BME280;47007;49.252;8.904;2022-10-31T04:42:12;100314.94;;;9.42;100.00
10638;BME280;47007;49.252;8.904;2022-10-31T04:44:39;100316.91;;;9.40;100.00
10638;BME280;47007;49.252;8.904;2022-10-31T04:47:05;100318.25;;;9.36;100.00
10638;BME280;47007;49.252;8.904;2022-10-31T04:49:32;100308.28;;;9.30;100.00
10638;BME280;47007;49.252;8.904;2022-10-31T04:51:59;100306.16;;;9.25;100.00
10638;BME280;47007;49.252;8.904;2022-10-31T04:54:25;100311.91;;;9.21;100.00
10638;BME280;47007;49.252;8.904;2022-10-31T04:57:11;100313.22;;;9.17;100.00
10638;BME280;47007;49.252;8.904;2022-10-31T04:59:38;100287.09;;;8.97;100.00
10638;BME280;47007;49.252;8.904;2022-10-31T05:02:04;100301.81;;;9.00;100.00
10638;BME280;47007;49.252;8.904;2022-10-31T05:04:53;100301.66;;;9.02;100.00
10638;BME280;47007;49.252;8.904;2022-10-31T05:07:20;100299.81;;;9.02;100.00
10638;BME280;47007;49.252;8.904;2022-10-31T05:09:46;100280.75;;;8.90;100.00
10638;BME280;47007;49.252;8.904;2022-10-31T05:12:13;100306.22;;;8.91;100.00
10638;BME280;47007;49.252;8.904;2022-10-31T05:14:58;100300.59;;;8.86;100.00
10638;BME280;47007;49.252;8.904;2022-10-31T05:17:55;100308.22;;;8.89;100.00
10638;BME280;47007;49.252;8.904;2022-10-31T05:20:48;100302.22;;;8.79;100.00
10638;BME280;47007;49.252;8.904;2022-10-31T05:23:22;100298.88;;;8.69;100.00
10638;BME280;47007;49.252;8.904;2022-10-31T05:25:49;100294.25;;;8.63;100.00
10638;BME280;47007;49.252;8.904;2022-10-31T05:28:16;100285.28;;;8.56;100.00
10638;BME280;47007;49.252;8.904;2022-10-31T05:30:43;100255.50;;;8.38;100.00
10638;BME280;47007;49.252;8.904;2022-10-31T05:33:13;100288.97;;;8.63;100.00
10638;BME280;47007;49.252;8.904;2022-10-31T05:35:40;100300.22;;;8.73;100.00
10638;BME280;47007;49.252;8.904;2022-10-31T05:38:25;100283.31;;;8.66;100.00
10638;BME280;47007;49.252;8.904;2022-10-31T05:40:55;100292.97;;;8.75;100.00
10638;BME280;47007;49.252;8.904;2022-10-31T05:43:28;100276.06;;;8.68;100.00
10638;BME280;47007;49.252;8.904;2022-10-31T05:45:55;100296.91;;;8.71;100.00
10638;BME280;47007;49.252;8.904;2022-10-31T05:48:49;100299.69;;;8.70;100.00
10638;BME280;47007;49.252;8.904;2022-10-31T05:51:34;100293.78;;;8.76;100.00
10638;BME280;47007;49.252;8.904;2022-10-31T05:54:03;100285.03;;;8.75;100.00
10638;BME280;47007;49.252;8.904;2022-10-31T05:56:30;100269.78;;;8.61;100.00
10638;BME280;47007;49.252;8.904;2022-10-31T05:58:56;100273.78;;;8.65;100.00
10638;BME280;47007;49.252;8.904;2022-10-31T06:01:25;100289.19;;;8.78;100.00
10638;BME280;47007;49.252;8.904;2022-10-31T06:03:52;100291.53;;;8.89;100.00
10638;BME280;47007;49.252;8.904;2022-10-31T06:06:21;100295.63;;;8.83;100.00
10638;BME280;47007;49.252;8.904;2022-10-31T06:08:48;100290.31;;;8.75;100.00
10638;BME280;47007;49.252;8.904;2022-10-31T06:11:19;100289.28;;;8.68;100.00
10638;BME280;47007;49.252;8.904;2022-10-31T06:14:01;100259.97;;;8.45;100.00
10638;BME280;47007;49.252;8.904;2022-10-31T06:16:38;100300.75;;;8.77;100.00
10638;BME280;47007;49.252;8.904;2022-10-31T06:19:33;100299.25;;;8.74;100.00
10638;BME280;47007;49.252;8.904;2022-10-31T06:22:00;100297.56;;;8.73;100.00
10638;BME280;47007;49.252;8.904;2022-10-31T06:24:28;100286.19;;;8.73;100.00
10638;BME280;47007;49.252;8.904;2022-10-31T06:27:16;100286.03;;;8.74;100.00
10638;BME280;47007;49.252;8.904;2022-10-31T06:29:43;100299.09;;;8.84;100.00
10638;BME280;47007;49.252;8.904;2022-10-31T06:32:20;100311.69;;;8.90;100.00
10638;BME280;47007;49.252;8.904;2022-10-31T06:34:47;100317.44;;;8.85;100.00
10638;BME280;47007;49.252;8.904;2022-10-31T06:37:15;100310.81;;;8.81;100.00
10638;BME280;47007;49.252;8.904;2022-10-31T06:39:45;100301.81;;;8.66;100.00
10638;BME280;47007;49.252;8.904;2022-10-31T06:42:15;100304.16;;;8.69;100.00
10638;BME280;47007;49.252;8.904;2022-10-31T06:44:42;100321.75;;;8.94;100.00
10638;BME280;47007;49.252;8.904;2022-10-31T06:47:35;100306.25;;;8.99;100.00
10638;BME280;47007;49.252;8.904;2022-10-31T06:50:26;100299.84;;;9.10;100.00
10638;BME280;47007;49.252;8.904;2022-10-31T06:52:53;100328.63;;;9.29;100.00
10638;BME280;47007;49.252;8.904;2022-10-31T06:55:20;100314.56;;;9.21;100.00
10638;BME280;47007;49.252;8.904;2022-10-31T06:57:59;100322.66;;;9.27;100.00
10638;BME280;47007;49.252;8.904;2022-10-31T07:00:30;100310.25;;;9.28;100.00
10638;BME280;47007;49.252;8.904;2022-10-31T07:03:09;100318.88;;;9.30;100.00
10638;BME280;47007;49.252;8.904;2022-10-31T07:05:37;100323.03;;;9.32;100.00
10638;BME280;47007;49.252;8.904;2022-10-31T07:08:06;100330.78;;;9.42;100.00
10638;BME280;47007;49.252;8.904;2022-10-31T07:10:34;100317.75;;;9.57;100.00
10638;BME280;47007;49.252;8.904;2022-10-31T07:13:16;100293.44;;;9.53;100.00
10638;BME280;47007;49.252;8.904;2022-10-31T07:15:50;100323.22;;;9.71;100.00
10638;BME280;47007;49.252;8.904;2022-10-31T07:18:17;100310.97;;;9.79;100.00
10638;BME280;47007;49.252;8.904;2022-10-31T07:20:43;100318.56;;;9.90;100.00
10638;BME280;47007;49.252;8.904;2022-10-31T07:23:11;100312.47;;;9.97;100.00
10638;BME280;47007;49.252;8.904;2022-10-31T07:25:39;100312.63;;;9.88;100.00
10638;BME280;47007;49.252;8.904;2022-10-31T07:28:14;100311.63;;;9.81;100.00
10638;BME280;47007;49.252;8.904;2022-10-31T07:30:49;100305.53;;;9.72;100.00
10638;BME280;47007;49.252;8.904;2022-10-31T07:33:19;100313.94;;;9.92;100.00
10638;BME280;47007;49.252;8.904;2022-10-31T07:36:18;100321.38;;;10.04;100.00
10638;BME280;47007;49.252;8.904;2022-10-31T07:38:47;100318.06;;;10.11;100.00
10638;BME280;47007;49.252;8.904;2022-10-31T07:41:14;100319.75;;;10.20;100.00
10638;BME280;47007;49.252;8.904;2022-10-31T07:43:43;100314.09;;;10.31;100.00
10638;BME280;47007;49.252;8.904;2022-10-31T07:46:16;100293.00;;;10.46;100.00
10638;BME280;47007;49.252;8.904;2022-10-31T07:49:01;100299.66;;;10.80;100.00
10638;BME280;47007;49.252;8.904;2022-10-31T07:51:48;100296.78;;;10.98;100.00
10638;BME280;47007;49.252;8.904;2022-10-31T07:54:33;100290.53;;;11.14;100.00
10638;BME280;47007;49.252;8.904;2022-10-31T07:57:00;100297.38;;;11.31;100.00
10638;BME280;47007;49.252;8.904;2022-10-31T07:59:27;100305.06;;;11.49;100.00
10638;BME280;47007;49.252;8.904;2022-10-31T08:01:54;100271.97;;;11.60;100.00
10638;BME280;47007;49.252;8.904;2022-10-31T08:04:47;100298.69;;;11.81;100.00
10638;BME280;47007;49.252;8.904;2022-10-31T08:07:49;100263.75;;;11.69;100.00
10638;BME280;47007;49.252;8.904;2022-10-31T08:10:20;100286.47;;;11.95;100.00
10638;BME280;47007;49.252;8.904;2022-10-31T08:12:47;100276.56;;;12.03;100.00
10638;BME280;47007;49.252;8.904;2022-10-31T08:15:21;100291.53;;;12.34;100.00
10638;BME280;47007;49.252;8.904;2022-10-31T08:17:50;100290.97;;;12.53;100.00
10638;BME280;47007;49.252;8.904;2022-10-31T08:20:18;100281.97;;;12.69;100.00
10638;BME280;47007;49.252;8.904;2022-10-31T08:22:59;100283.41;;;12.86;100.00
10638;BME280;47007;49.252;8.904;2022-10-31T08:25:28;100253.34;;;12.85;100.00
10638;BME280;47007;49.252;8.904;2022-10-31T08:28:02;100287.50;;;13.18;100.00
10638;BME280;47007;49.252;8.904;2022-10-31T08:30:31;100271.47;;;13.33;100.00
10638;BME280;47007;49.252;8.904;2022-10-31T08:33:18;100268.94;;;13.46;100.00
10638;BME280;47007;49.252;8.904;2022-10-31T08:36:03;100241.75;;;13.29;100.00
10638;BME280;47007;49.252;8.904;2022-10-31T08:38:49;100218.53;;;13.23;100.00
10638;BME280;47007;49.252;8.904;2022-10-31T08:41:16;100253.66;;;13.54;100.00
10638;BME280;47007;49.252;8.904;2022-10-31T08:43:43;100251.09;;;13.68;100.00
10638;BME280;47007;49.252;8.904;2022-10-31T08:46:10;100244.22;;;13.80;100.00
10638;BME280;47007;49.252;8.904;2022-10-31T08:48:38;100241.41;;;13.88;100.00
10638;BME280;47007;49.252;8.904;2022-10-31T08:51:06;100232.00;;;13.92;100.00
10638;BME280;47007;49.252;8.904;2022-10-31T08:53:33;100220.63;;;14.05;100.00
10638;BME280;47007;49.252;8.904;2022-10-31T08:56:22;100227.13;;;14.36;100.00
10638;BME280;47007;49.252;8.904;2022-10-31T08:58:49;100231.16;;;14.54;100.00
10638;BME280;47007;49.252;8.904;2022-10-31T09:01:22;100234.09;;;14.72;100.00
10638;BME280;47007;49.252;8.904;2022-10-31T09:03:49;100214.84;;;14.83;100.00
10638;BME280;47007;49.252;8.904;2022-10-31T09:06:19;100226.00;;;15.13;100.00
10638;BME280;47007;49.252;8.904;2022-10-31T09:08:47;100205.88;;;15.24;100.00
10638;BME280;47007;49.252;8.904;2022-10-31T09:11:14;100199.72;;;15.50;100.00
10638;BME280;47007;49.252;8.904;2022-10-31T09:14:00;100207.97;;;15.61;100.00
10638;BME280;47007;49.252;8.904;2022-10-31T09:16:47;100206.09;;;15.29;100.00
10638;BME280;47007;49.252;8.904;2022-10-31T09:19:20;100200.97;;;15.54;100.00
10638;BME280;47007;49.252;8.904;2022-10-31T09:21:47;100213.31;;;15.94;100.00
10638;BME280;47007;49.252;8.904;2022-10-31T09:24:14;100207.84;;;16.34;100.00
10638;BME280;47007;49.252;8.904;2022-10-31T09:26:41;100186.19;;;16.48;100.00
10638;BME280;47007;49.252;8.904;2022-10-31T09:29:25;100186.31;;;16.60;100.00
10638;BME280;47007;49.252;8.904;2022-10-31T09:31:56;100170.59;;;16.39;100.00
10638;BME280;47007;49.252;8.904;2022-10-31T09:34:30;100180.72;;;16.30;100.00
10638;BME280;47007;49.252;8.904;2022-10-31T09:37:11;100171.28;;;16.14;100.00
10638;BME280;47007;49.252;8.904;2022-10-31T09:39:38;100165.75;;;16.09;100.00
10638;BME280;47007;49.252;8.904;2022-10-31T09:42:50;100194.19;;;16.55;100.00
10638;BME280;47007;49.252;8.904;2022-10-31T09:45:30;100203.94;;;16.87;100.00
10638;BME280;47007;49.252;8.904;2022-10-31T09:48:09;100194.72;;;17.08;100.00
10638;BME280;47007;49.252;8.904;2022-10-31T09:51:17;100192.72;;;17.04;100.00
10638;BME280;47007;49.252;8.904;2022-10-31T09:54:14;100197.59;;;17.13;100.00
10638;BME280;47007;49.252;8.904;2022-10-31T09:56:43;100186.38;;;17.23;100.00
10638;BME280;47007;49.252;8.904;2022-10-31T09:59:19;100191.72;;;17.30;100.00
10638;BME280;47007;49.252;8.904;2022-10-31T10:01:57;100181.63;;;17.25;100.00
10638;BME280;47007;49.252;8.904;2022-10-31T10:04:53;100161.88;;;17.19;100.00
10638;BME280;47007;49.252;8.904;2022-10-31T10:07:46;100153.81;;;17.26;100.00
10638;BME280;47007;49.252;8.904;2022-10-31T10:10:51;100158.03;;;17.40;100.00
10638;BME280;47007;49.252;8.904;2022-10-31T10:13:48;100167.53;;;17.61;100.00
10638;BME280;47007;49.252;8.904;2022-10-31T10:16:28;100167.94;;;17.65;100.00
10638;BME280;47007;49.252;8.904;2022-10-31T10:25:16;100146.72;;;17.81;100.00
10638;BME280;47007;49.252;8.904;2022-10-31T10:30:39;100127.22;;;17.92;100.00
10638;BME280;47007;49.252;8.904;2022-10-31T10:33:09;100106.56;;;18.11;100.00
10638;BME280;47007;49.252;8.904;2022-10-31T10:35:47;100120.84;;;18.42;100.00
10638;BME280;47007;49.252;8.904;2022-10-31T10:41:03;100117.84;;;18.50;100.00
10638;BME280;47007;49.252;8.904;2022-10-31T10:43:38;100100.13;;;18.30;100.00
10638;BME280;47007;49.252;8.904;2022-10-31T10:49:58;100118.78;;;18.55;100.00
10638;BME280;47007;49.252;8.904;2022-10-31T10:55:40;100060.97;;;18.71;100.00
10638;BME280;47007;49.252;8.904;2022-10-31T10:58:10;100082.06;;;18.67;100.00
10638;BME280;47007;49.252;8.904;2022-10-31T11:00:47;100090.94;;;18.68;100.00
10638;BME280;47007;49.252;8.904;2022-10-31T11:03:17;100086.41;;;18.69;100.00
10638;BME280;47007;49.252;8.904;2022-10-31T11:05:50;100068.69;;;18.79;100.00
10638;BME280;47007;49.252;8.904;2022-10-31T11:08:33;100047.53;;;18.71;100.00
10638;BME280;47007;49.252;8.904;2022-10-31T11:11:03;100045.69;;;18.83;100.00
10638;BME280;47007;49.252;8.904;2022-10-31T11:13:31;100048.84;;;18.80;100.00
10638;BME280;47007;49.252;8.904;2022-10-31T11:16:09;100043.94;;;18.77;100.00
10638;BME280;47007;49.252;8.904;2022-10-31T11:18:40;100038.09;;;18.80;100.00
10638;BME280;47007;49.252;8.904;2022-10-31T11:21:20;100039.94;;;18.68;100.00
10638;BME280;47007;49.252;8.904;2022-10-31T11:23:47;100025.00;;;18.60;100.00
10638;BME280;47007;49.252;8.904;2022-10-31T11:26:20;100020.38;;;18.49;100.00
10638;BME280;47007;49.252;8.904;2022-10-31T11:28:58;100027.47;;;18.44;100.00
10638;BME280;47007;49.252;8.904;2022-10-31T11:31:25;100023.88;;;18.38;100.00
10638;BME280;47007;49.252;8.904;2022-10-31T11:34:00;100016.41;;;18.40;100.00
10638;BME280;47007;49.252;8.904;2022-10-31T11:36:30;100010.56;;;18.43;100.00
10638;BME280;47007;49.252;8.904;2022-10-31T11:38:59;100015.78;;;18.68;100.00
10638;BME280;47007;49.252;8.904;2022-10-31T11:41:33;100003.78;;;18.82;100.00
10638;BME280;47007;49.252;8.904;2022-10-31T11:44:18;99992.81;;;18.95;100.00
10638;BME280;47007;49.252;8.904;2022-10-31T11:46:51;99987.09;;;19.04;100.00
10638;BME280;47007;49.252;8.904;2022-10-31T11:49:24;99981.72;;;19.04;100.00
10638;BME280;47007;49.252;8.904;2022-10-31T11:51:55;99963.03;;;18.85;100.00
10638;BME280;47007;49.252;8.904;2022-10-31T11:54:27;99976.81;;;19.00;100.00
10638;BME280;47007;49.252;8.904;2022-10-31T11:56:55;99942.59;;;18.96;100.00
10638;BME280;47007;49.252;8.904;2022-10-31T11:59:27;99958.91;;;19.18;100.00
10638;BME280;47007;49.252;8.904;2022-10-31T12:01:57;99938.97;;;19.02;100.00
10638;BME280;47007;49.252;8.904;2022-10-31T12:04:31;99940.63;;;18.91;100.00
10638;BME280;47007;49.252;8.904;2022-10-31T12:07:00;99951.34;;;19.03;100.00
10638;BME280;47007;49.252;8.904;2022-10-31T12:09:29;99957.88;;;19.07;100.00
10638;BME280;47007;49.252;8.904;2022-10-31T12:15:03;99946.31;;;18.83;100.00
10638;BME280;47007;49.252;8.904;2022-10-31T12:17:45;99947.03;;;18.79;100.00
10638;BME280;47007;49.252;8.904;2022-10-31T12:34:43;99935.59;;;18.72;100.00
10638;BME280;47007;49.252;8.904;2022-10-31T12:51:15;99927.06;;;18.75;100.00
10638;BME280;47007;49.252;8.904;2022-10-31T12:59:43;99899.59;;;18.96;100.00
10638;BME280;47007;49.252;8.904;2022-10-31T13:04:55;99899.88;;;19.34;100.00
10638;BME280;47007;49.252;8.904;2022-10-31T13:07:37;99892.16;;;19.38;100.00
10638;BME280;47007;49.252;8.904;2022-10-31T13:10:18;99889.28;;;19.28;100.00
10638;BME280;47007;49.252;8.904;2022-10-31T13:12:49;99885.78;;;19.27;100.00
10638;BME280;47007;49.252;8.904;2022-10-31T13:17:47;99829.38;;;19.16;100.00
10638;BME280;47007;49.252;8.904;2022-10-31T13:23:05;99837.25;;;19.34;100.00
10638;BME280;47007;49.252;8.904;2022-10-31T13:25:58;99816.56;;;19.34;100.00
10638;BME280;47007;49.252;8.904;2022-10-31T13:31:02;99819.47;;;19.05;100.00
10638;BME280;47007;49.252;8.904;2022-10-31T13:33:38;99808.50;;;18.94;100.00
10638;BME280;47007;49.252;8.904;2022-10-31T13:38:54;99832.81;;;18.99;100.00
10638;BME280;47007;49.252;8.904;2022-10-31T13:46:41;99809.75;;;19.89;100.00
10638;BME280;47007;49.252;8.904;2022-10-31T13:57:25;99809.59;;;20.12;100.00
10638;BME280;47007;49.252;8.904;2022-10-31T14:00:05;99811.88;;;19.87;100.00
10638;BME280;47007;49.252;8.904;2022-10-31T14:02:46;99809.75;;;19.72;100.00
10638;BME280;47007;49.252;8.904;2022-10-31T14:05:26;99816.59;;;19.96;100.00
10638;BME280;47007;49.252;8.904;2022-10-31T14:07:55;99804.06;;;20.02;100.00
10638;BME280;47007;49.252;8.904;2022-10-31T14:13:18;99806.41;;;20.15;100.00
10638;BME280;47007;49.252;8.904;2022-10-31T14:18:24;99787.81;;;20.14;100.00
10638;BME280;47007;49.252;8.904;2022-10-31T14:20:51;99808.53;;;20.13;100.00
10638;BME280;47007;49.252;8.904;2022-10-31T14:26:21;99814.00;;;19.85;100.00
10638;BME280;47007;49.252;8.904;2022-10-31T14:29:19;99816.16;;;19.71;100.00
10638;BME280;47007;49.252;8.904;2022-10-31T14:39:36;99827.47;;;18.88;100.00
10638;BME280;47007;49.252;8.904;2022-10-31T14:42:31;99826.66;;;18.76;100.00
10638;BME280;47007;49.252;8.904;2022-10-31T14:50:50;99824.81;;;18.41;100.00
10638;BME280;47007;49.252;8.904;2022-10-31T14:55:48;99808.72;;;18.41;100.00
10638;BME280;47007;49.252;8.904;2022-10-31T15:01:03;99802.63;;;18.34;100.00
10638;BME280;47007;49.252;8.904;2022-10-31T15:03:36;99764.50;;;18.09;100.00
10638;BME280;47007;49.252;8.904;2022-10-31T15:06:20;99814.53;;;18.26;100.00
10638;BME280;47007;49.252;8.904;2022-10-31T15:08:52;99829.38;;;18.17;100.00
10638;BME280;47007;49.252;8.904;2022-10-31T15:13:49;99820.69;;;17.92;100.00
10638;BME280;47007;49.252;8.904;2022-10-31T15:16:34;99826.75;;;17.87;100.00
10638;BME280;47007;49.252;8.904;2022-10-31T15:19:09;99838.16;;;17.83;100.00
10638;BME280;47007;49.252;8.904;2022-10-31T15:21:44;99797.75;;;17.54;100.00
10638;BME280;47007;49.252;8.904;2022-10-31T15:24:14;99817.94;;;17.69;100.00
10638;BME280;47007;49.252;8.904;2022-10-31T15:26:49;99811.03;;;17.61;100.00
10638;BME280;47007;49.252;8.904;2022-10-31T15:29:20;99804.81;;;17.49;100.00
10638;BME280;47007;49.252;8.904;2022-10-31T15:32:12;99810.63;;;17.46;100.00
10638;BME280;47007;49.252;8.904;2022-10-31T15:34:42;99817.84;;;17.45;100.00
10638;BME280;47007;49.252;8.904;2022-10-31T15:37:13;99820.91;;;17.49;100.00
10638;BME280;47007;49.252;8.904;2022-10-31T15:39:41;99811.97;;;17.25;100.00